createdAt,value
2018-07-03T00:00:23.075Z,10.60
2018-07-03T00:03:25.874Z,10.93
2018-07-03T00:06:27.523Z,10.33
2018-07-03T00:09:30.826Z,10.63
2018-07-03T00:12:32.929Z,10.63
2018-07-03T00:15:34.795Z,9.70
2018-07-03T00:18:36.245Z,9.47
2018-07-03T00:21:38.177Z,7.80
2018-07-03T00:24:40.686Z,11.63
2018-07-03T00:27:42.326Z,10.60
2018-07-03T00:30:44.043Z,10.67
2018-07-03T00:33:46.068Z,13.43
2018-07-03T00:36:49.448Z,13.73
2018-07-03T00:39:52.251Z,15.47
2018-07-03T00:42:56.707Z,18.87
2018-07-03T00:46:24.312Z,13.70
2018-07-03T00:49:26.570Z,11.33
2018-07-03T00:55:29.608Z,9.13
2018-07-03T00:58:04.649Z,6.27
2018-07-03T01:03:29.551Z,5.10
2018-07-03T01:06:01.537Z,5.53
2018-07-03T01:08:34.208Z,3.90
2018-07-03T01:11:10.792Z,3.97
2018-07-03T01:13:42.770Z,4.30
2018-07-03T01:16:16.914Z,6.33
2018-07-03T01:18:49.040Z,4.70
2018-07-03T01:21:21.322Z,4.17
2018-07-03T01:23:54.924Z,4.30
2018-07-03T01:26:27.051Z,4.87
2018-07-03T01:28:59.018Z,5.20
2018-07-03T01:31:31.150Z,6.63
2018-07-03T01:34:03.077Z,5.13
2018-07-03T01:37:04.067Z,8.03
2018-07-03T01:39:36.023Z,5.07
2018-07-03T01:42:08.837Z,4.50
2018-07-03T01:44:41.658Z,3.70
2018-07-03T01:47:13.740Z,2.80
2018-07-03T01:49:45.737Z,2.73
2018-07-03T01:52:17.619Z,3.67
2018-07-03T01:54:51.023Z,5.10
2018-07-03T01:57:23.742Z,5.93
2018-07-03T01:59:55.674Z,5.77
2018-07-03T02:02:27.743Z,6.17
2018-07-03T02:04:59.654Z,6.13
2018-07-03T02:07:31.642Z,5.90
2018-07-03T02:10:03.603Z,6.60
2018-07-03T02:12:35.780Z,5.80
2018-07-03T02:15:10.947Z,5.93
2018-07-03T02:17:43.153Z,5.33
2018-07-03T02:20:15.814Z,5.37
2018-07-03T02:22:48.904Z,4.87
2018-07-03T02:25:21.483Z,4.97
2018-07-03T02:27:53.559Z,4.10
2018-07-03T02:30:25.672Z,4.30
2018-07-03T02:32:58.003Z,4.93
2018-07-03T02:35:30.009Z,5.77
2018-07-03T02:38:10.241Z,7.23
2018-07-03T02:40:42.722Z,7.47
2018-07-03T02:43:15.832Z,8.20
2018-07-03T02:45:47.804Z,7.10
2018-07-03T02:48:19.752Z,7.50
2018-07-03T02:50:51.717Z,7.40
2018-07-03T02:53:23.751Z,7.23
2018-07-03T02:56:00.089Z,7.40
2018-07-03T02:58:32.875Z,7.20
2018-07-03T03:01:04.815Z,7.00
2018-07-03T03:03:36.757Z,5.93
2018-07-03T03:06:08.734Z,7.20
2018-07-03T03:08:40.659Z,6.50
2018-07-03T03:11:12.917Z,8.27
2018-07-03T03:13:45.473Z,11.13
2018-07-03T03:20:07.701Z,10.73
2018-07-03T03:22:39.612Z,8.80
2018-07-03T03:25:11.544Z,7.37
2018-07-03T03:27:44.344Z,6.47
2018-07-03T03:30:16.333Z,6.53
2018-07-03T03:32:49.122Z,7.67
2018-07-03T03:35:21.038Z,9.10
2018-07-03T03:37:52.937Z,7.13
2018-07-03T03:40:25.001Z,6.43
2018-07-03T03:42:56.889Z,8.77
2018-07-03T03:45:28.956Z,9.60
2018-07-03T03:48:00.896Z,7.50
2018-07-03T03:50:32.798Z,7.33
2018-07-03T03:53:04.735Z,7.80
2018-07-03T03:55:36.720Z,9.00
2018-07-03T03:58:08.792Z,11.00
2018-07-03T04:00:42.931Z,11.50
2018-07-03T04:03:16.939Z,10.83
2018-07-03T04:05:48.958Z,8.80
2018-07-03T04:08:27.126Z,9.10
2018-07-03T04:10:59.177Z,9.63
2018-07-03T04:13:31.164Z,8.90
2018-07-03T04:16:03.231Z,10.90
2018-07-03T04:18:36.028Z,9.97
2018-07-03T04:21:09.925Z,9.70
2018-07-03T04:23:41.860Z,9.70
2018-07-03T04:26:13.762Z,9.37
2018-07-03T04:28:46.220Z,8.90
2018-07-03T04:31:18.168Z,8.73
2018-07-03T04:33:50.036Z,8.27
2018-07-03T04:36:22.552Z,8.57
2018-07-03T04:38:54.406Z,8.80
2018-07-03T04:41:27.498Z,8.63
2018-07-03T04:43:59.495Z,8.63
2018-07-03T04:46:31.472Z,8.67
2018-07-03T04:49:03.396Z,9.30
2018-07-03T04:51:35.415Z,8.97
2018-07-03T04:54:07.294Z,6.93
2018-07-03T04:56:39.701Z,6.73
2018-07-03T04:59:11.574Z,8.27
2018-07-03T05:01:43.945Z,7.57
2018-07-03T05:04:15.933Z,7.03
2018-07-03T05:06:48.169Z,7.60
2018-07-03T05:09:20.022Z,6.97
2018-07-03T05:11:51.980Z,7.63
2018-07-03T05:14:23.902Z,7.23
2018-07-03T05:16:58.729Z,7.37
2018-07-03T05:19:32.060Z,7.70
2018-07-03T05:22:05.315Z,7.10
2018-07-03T05:24:37.183Z,6.77
2018-07-03T05:27:09.242Z,7.70
2018-07-03T05:29:41.164Z,7.47
2018-07-03T05:32:14.097Z,6.70
2018-07-03T05:34:46.067Z,7.00
2018-07-03T05:37:18.175Z,6.50
2018-07-03T05:39:50.112Z,7.27
2018-07-03T05:42:23.295Z,7.07
2018-07-03T05:44:56.267Z,7.63
2018-07-03T05:47:28.284Z,7.67
2018-07-03T05:50:00.215Z,8.47
2018-07-03T05:52:32.175Z,7.30
2018-07-03T05:55:04.042Z,7.60
2018-07-03T05:57:36.013Z,8.10
2018-07-03T06:00:08.492Z,6.87
2018-07-03T06:02:41.224Z,6.37
2018-07-03T06:05:13.244Z,8.23
2018-07-03T06:07:45.196Z,7.70
2018-07-03T06:10:17.216Z,8.67
2018-07-03T06:12:49.215Z,9.90
2018-07-03T06:15:21.539Z,9.03
2018-07-03T06:17:53.612Z,9.77
2018-07-03T06:20:25.480Z,8.40
2018-07-03T06:23:00.810Z,7.87
2018-07-03T06:25:32.679Z,8.80
2018-07-03T06:28:04.584Z,9.07
2018-07-03T06:30:36.487Z,8.73
2018-07-03T06:33:08.528Z,8.07
2018-07-03T06:35:40.825Z,9.17
2018-07-03T06:38:12.726Z,9.83
2018-07-03T06:40:44.594Z,8.73
2018-07-03T06:43:18.073Z,9.17
2018-07-03T06:45:50.298Z,9.70
2018-07-03T06:48:22.331Z,8.93
2018-07-03T06:50:54.197Z,8.70
2018-07-03T06:53:26.090Z,8.13
2018-07-03T06:55:58.686Z,8.37
2018-07-03T06:58:31.077Z,8.93
2018-07-03T07:01:02.923Z,7.63
2018-07-03T07:03:35.634Z,8.20
2018-07-03T07:06:07.497Z,8.97
2018-07-03T07:08:39.493Z,8.53
2018-07-03T07:11:11.467Z,9.00
2018-07-03T07:13:43.474Z,9.17
2018-07-03T07:16:15.384Z,8.93
2018-07-03T07:18:47.420Z,8.67
2018-07-03T07:21:19.383Z,9.27
2018-07-03T07:23:51.440Z,9.60
2018-07-03T07:26:23.313Z,9.00
2018-07-03T07:28:55.610Z,9.43
2018-07-03T07:31:27.515Z,9.10
2018-07-03T07:33:59.552Z,9.17
2018-07-03T07:36:31.478Z,8.87
2018-07-03T07:39:03.530Z,9.97
2018-07-03T07:41:37.173Z,8.97
2018-07-03T07:44:11.809Z,8.60
2018-07-03T07:46:43.688Z,13.50
2018-07-03T07:49:15.735Z,20.83
2018-07-03T07:51:47.558Z,31.10
2018-07-03T07:54:20.289Z,30.90
2018-07-03T07:56:52.432Z,20.27
2018-07-03T07:59:24.379Z,14.60
2018-07-03T08:01:56.282Z,10.27
2018-07-03T08:04:28.884Z,9.00
2018-07-03T08:07:00.723Z,9.87
2018-07-03T08:09:32.788Z,9.53
2018-07-03T08:12:04.718Z,10.07
2018-07-03T08:14:36.618Z,9.87
2018-07-03T08:17:08.484Z,10.40
2018-07-03T08:19:40.585Z,12.67
2018-07-03T08:22:12.458Z,12.27
2018-07-03T08:24:45.852Z,11.20
2018-07-03T08:27:17.747Z,10.70
2018-07-03T08:29:49.726Z,10.73
2018-07-03T08:32:23.106Z,10.97
2018-07-03T08:34:55.243Z,10.03
2018-07-03T08:37:27.145Z,10.53
2018-07-03T08:39:59.077Z,12.20
2018-07-03T08:42:30.940Z,10.80
2018-07-03T08:45:02.951Z,9.90
2018-07-03T08:47:34.756Z,10.80
2018-07-03T08:50:07.261Z,9.53
2018-07-03T08:52:39.242Z,9.17
2018-07-03T08:55:11.242Z,9.87
2018-07-03T08:57:43.256Z,10.63
2018-07-03T09:00:15.193Z,9.27
2018-07-03T09:02:47.079Z,10.03
2018-07-03T09:05:20.527Z,9.63
2018-07-03T09:07:52.434Z,10.20
2018-07-03T09:10:24.380Z,10.87
2018-07-03T09:12:56.266Z,10.13
2018-07-03T09:15:28.260Z,11.33
2018-07-03T09:18:00.247Z,10.17
2018-07-03T09:20:32.282Z,11.43
2018-07-03T09:23:04.126Z,10.43
2018-07-03T09:25:36.330Z,10.53
2018-07-03T09:28:08.205Z,10.57
2018-07-03T09:30:40.134Z,10.20
2018-07-03T09:33:12.122Z,11.63
2018-07-03T09:35:44.312Z,9.13
2018-07-03T09:38:16.238Z,10.57
2018-07-03T09:40:48.161Z,10.50
2018-07-03T09:43:20.064Z,9.30
2018-07-03T09:45:52.248Z,9.87
2018-07-03T09:48:24.030Z,10.73
2018-07-03T09:50:56.061Z,11.27
2018-07-03T09:53:28.807Z,11.03
2018-07-03T09:56:00.743Z,10.53
2018-07-03T09:58:32.539Z,10.93
2018-07-03T10:01:19.035Z,11.03
2018-07-03T10:03:50.955Z,11.43
2018-07-03T10:06:33.576Z,10.77
2018-07-03T10:09:06.245Z,10.40
2018-07-03T10:11:38.131Z,11.17
2018-07-03T10:14:10.492Z,10.03
2018-07-03T10:16:42.506Z,10.67
2018-07-03T10:19:14.388Z,10.53
2018-07-03T10:21:46.393Z,10.13
2018-07-03T10:24:18.265Z,10.47
2018-07-03T10:26:50.471Z,8.87
2018-07-03T10:29:22.389Z,9.97
2018-07-03T10:31:55.186Z,9.83
2018-07-03T10:34:27.933Z,8.90
2018-07-03T10:36:59.934Z,9.23
2018-07-03T10:39:31.825Z,9.63
2018-07-03T10:42:03.766Z,9.70
2018-07-03T10:44:35.698Z,9.07
2018-07-03T10:47:08.240Z,9.50
2018-07-03T10:49:40.090Z,8.47
2018-07-03T10:52:12.218Z,9.87
2018-07-03T10:54:44.065Z,10.03
2018-07-03T10:57:15.988Z,9.80
2018-07-03T10:59:47.921Z,9.67
2018-07-03T11:02:19.931Z,9.73
2018-07-03T11:04:51.821Z,11.47
2018-07-03T11:07:25.146Z,11.57
2018-07-03T11:09:56.947Z,13.10
2018-07-03T11:12:28.887Z,13.37
2018-07-03T11:15:01.305Z,11.73
2018-07-03T11:17:33.264Z,10.73
2018-07-03T11:20:05.955Z,11.67
2018-07-03T11:22:38.360Z,12.17
2018-07-03T11:25:11.386Z,12.10
2018-07-03T11:27:43.909Z,13.30
2018-07-03T11:30:17.360Z,12.30
2018-07-03T11:32:49.641Z,11.10
2018-07-03T11:35:21.615Z,11.67
2018-07-03T11:37:53.662Z,13.00
2018-07-03T11:40:25.574Z,12.50
2018-07-03T11:42:58.476Z,13.23
2018-07-03T11:45:30.401Z,16.03
2018-07-03T11:48:02.586Z,14.47
2018-07-03T11:50:34.523Z,14.87
2018-07-03T11:53:07.820Z,16.43
2018-07-03T11:55:39.833Z,17.83
2018-07-03T11:58:12.597Z,19.73
2018-07-03T12:00:45.077Z,14.73
2018-07-03T12:03:17.072Z,15.13
2018-07-03T12:05:49.121Z,15.03
2018-07-03T12:08:23.820Z,13.93
2018-07-03T12:10:58.127Z,13.57
2018-07-03T12:13:32.865Z,16.30
2018-07-03T12:16:06.716Z,16.03
2018-07-03T12:18:45.305Z,14.93
2018-07-03T12:21:17.964Z,14.13
2018-07-03T12:23:51.727Z,16.27
2018-07-03T12:26:24.180Z,15.97
2018-07-03T12:28:56.775Z,15.83
2018-07-03T12:31:28.851Z,15.57
2018-07-03T12:34:01.079Z,17.87
2018-07-03T12:36:33.911Z,17.53
2018-07-03T12:39:06.453Z,28.03
2018-07-03T12:41:39.330Z,16.60
2018-07-03T12:44:11.838Z,14.03
2018-07-03T12:46:44.503Z,15.40
2018-07-03T12:49:18.227Z,21.03
2018-07-03T12:51:50.419Z,17.90
2018-07-03T12:54:36.203Z,21.70
2018-07-03T13:00:15.148Z,16.20
2018-07-03T13:02:50.061Z,17.17
2018-07-03T13:05:22.745Z,16.40
2018-07-03T13:07:59.257Z,17.10
2018-07-03T13:10:36.493Z,16.47
2018-07-03T13:13:08.480Z,14.30
2018-07-03T13:15:40.603Z,14.37
2018-07-03T13:18:16.987Z,14.67
2018-07-03T13:20:49.610Z,13.83
2018-07-03T13:23:24.176Z,12.33
2018-07-03T13:25:56.530Z,12.53
2018-07-03T13:28:29.299Z,13.67
2018-07-03T13:31:10.075Z,12.13
2018-07-03T13:33:42.107Z,14.17
2018-07-03T13:36:24.317Z,12.40
2018-07-03T13:39:01.213Z,11.53
2018-07-03T13:41:38.450Z,15.33
2018-07-03T13:44:20.270Z,11.97
2018-07-03T13:50:07.132Z,11.77
2018-07-03T13:53:24.269Z,10.53
2018-07-03T13:55:57.344Z,11.00
2018-07-03T13:58:31.007Z,11.70
2018-07-03T14:01:06.418Z,10.37
2018-07-03T14:03:38.466Z,12.30
2018-07-03T14:06:10.579Z,11.17
2018-07-03T14:08:43.652Z,9.50
2018-07-03T14:11:16.117Z,11.77
2018-07-03T14:13:49.628Z,12.53
2018-07-03T14:16:22.910Z,10.27
2018-07-03T14:18:55.483Z,8.47
2018-07-03T14:21:28.836Z,8.40
2018-07-03T14:24:11.033Z,11.63
2018-07-03T14:26:43.743Z,8.90
2018-07-03T14:29:16.453Z,10.40
2018-07-03T14:31:49.125Z,11.17
2018-07-03T14:34:23.766Z,8.40
2018-07-03T14:37:08.355Z,9.67
2018-07-03T14:39:50.358Z,9.43
2018-07-03T14:42:25.132Z,9.47
2018-07-03T14:44:59.144Z,13.83
2018-07-03T14:47:33.579Z,8.70
2018-07-03T14:50:05.803Z,9.57
2018-07-03T14:52:38.906Z,8.40
2018-07-03T14:55:15.527Z,26.60
2018-07-03T14:57:50.591Z,17.27
2018-07-03T15:00:23.753Z,15.00
2018-07-03T15:02:56.496Z,11.43
2018-07-03T15:05:28.561Z,12.60
2018-07-03T15:08:02.747Z,19.87
2018-07-03T15:10:35.863Z,11.47
2018-07-03T15:13:09.631Z,9.37
2018-07-03T15:15:41.935Z,10.57
2018-07-03T15:18:16.228Z,9.50
2018-07-03T15:20:53.129Z,8.70
2018-07-03T15:23:27.241Z,9.97
2018-07-03T15:26:12.300Z,10.00
2018-07-03T15:28:44.980Z,8.93
2018-07-03T15:31:18.237Z,10.10
2018-07-03T15:33:50.274Z,8.40
2018-07-03T15:36:25.913Z,10.53
2018-07-03T15:38:59.470Z,10.13
2018-07-03T15:41:31.935Z,17.20
2018-07-03T15:44:13.469Z,9.33
2018-07-03T15:46:46.854Z,8.50
2018-07-03T15:49:19.127Z,9.67
2018-07-03T15:51:55.094Z,11.17
2018-07-03T15:54:32.658Z,10.67
2018-07-03T15:57:13.889Z,6.43
2018-07-03T15:59:46.799Z,8.83
2018-07-03T16:02:19.496Z,12.50
2018-07-03T16:05:12.622Z,11.50
2018-07-03T16:07:55.655Z,11.87
2018-07-03T16:10:32.839Z,8.97
2018-07-03T16:13:05.041Z,8.63
2018-07-03T16:15:46.698Z,12.20
2018-07-03T16:18:52.819Z,10.27
2018-07-03T16:21:25.730Z,9.93
2018-07-03T16:23:58.464Z,9.07
2018-07-03T16:26:30.514Z,9.97
2018-07-03T16:29:03.924Z,8.37
2018-07-03T16:31:37.548Z,8.83
2018-07-03T16:34:10.745Z,8.00
2018-07-03T16:36:45.524Z,7.60
2018-07-03T16:39:18.704Z,12.97
2018-07-03T16:41:51.275Z,9.60
2018-07-03T16:44:26.533Z,8.50
2018-07-03T16:47:02.277Z,8.00
2018-07-03T16:49:37.215Z,8.80
2018-07-03T16:52:14.992Z,12.50
2018-07-03T16:54:50.142Z,8.50
2018-07-03T16:57:24.628Z,7.70
2018-07-03T16:59:57.177Z,8.00
2018-07-03T17:02:33.273Z,7.97
2018-07-03T17:05:08.581Z,12.07
2018-07-03T17:07:41.388Z,9.30
2018-07-03T17:10:15.209Z,9.93
2018-07-03T17:12:47.902Z,10.20
2018-07-03T17:15:24.878Z,7.73
2018-07-03T17:18:01.676Z,11.90
2018-07-03T17:20:36.083Z,9.27
2018-07-03T17:23:09.114Z,8.97
2018-07-03T17:25:42.241Z,8.83
2018-07-03T17:28:15.148Z,8.77
2018-07-03T17:30:48.648Z,9.67
2018-07-03T17:33:21.357Z,8.77
2018-07-03T17:35:55.354Z,9.27
2018-07-03T17:38:28.554Z,9.30
2018-07-03T17:41:10.171Z,8.97
2018-07-03T17:44:20.253Z,8.33
2018-07-03T17:46:53.397Z,8.53
2018-07-03T17:49:26.047Z,10.85
2018-07-03T17:51:59.245Z,8.78
2018-07-03T17:54:31.801Z,8.67
2018-07-03T17:57:03.995Z,9.20
2018-07-03T17:59:35.921Z,9.43
2018-07-03T18:02:10.981Z,9.80
2018-07-03T18:04:46.539Z,11.40
2018-07-03T18:07:20.583Z,9.05
2018-07-03T18:09:53.771Z,8.63
2018-07-03T18:12:28.532Z,8.85
2018-07-03T18:15:01.438Z,10.08
2018-07-03T18:17:36.244Z,8.25
2018-07-03T18:20:09.696Z,9.03
2018-07-03T18:22:44.138Z,8.63
2018-07-03T18:25:17.308Z,8.18
2018-07-03T18:27:52.003Z,9.00
2018-07-03T18:30:32.343Z,9.80
2018-07-03T18:33:05.442Z,9.15
2018-07-03T18:35:39.194Z,11.57
2018-07-03T18:38:12.941Z,9.33
2018-07-03T18:40:45.277Z,9.00
2018-07-03T18:43:47.752Z,7.80
2018-07-03T18:46:23.497Z,8.75
2018-07-03T18:48:57.071Z,8.45
2018-07-03T18:51:34.344Z,9.17
2018-07-03T18:54:15.178Z,8.78
2018-07-03T18:56:47.981Z,8.80
2018-07-03T18:59:24.800Z,9.25
2018-07-03T19:02:12.494Z,7.58
2018-07-03T19:05:30.755Z,11.45
2018-07-03T19:47:12.167Z,8.23
2018-07-03T19:50:06.983Z,10.08
2018-07-03T19:53:12.075Z,7.05
2018-07-03T19:56:54.301Z,9.95
2018-07-03T19:59:28.421Z,8.25
2018-07-03T20:02:05.210Z,8.60
2018-07-03T20:07:41.506Z,8.55
2018-07-03T20:10:13.640Z,9.08
2018-07-03T20:12:47.233Z,9.38
2018-07-03T20:15:19.441Z,9.45
2018-07-03T20:17:52.375Z,8.80
2018-07-03T20:20:29.585Z,11.33
2018-07-03T20:23:03.857Z,7.33
2018-07-03T20:25:37.155Z,8.00
2018-07-03T20:28:11.281Z,9.63
2018-07-03T20:30:44.983Z,8.58
2018-07-03T20:33:18.899Z,8.35
2018-07-03T20:35:51.769Z,9.68
2018-07-03T20:38:25.885Z,12.45
2018-07-03T20:41:01.964Z,8.98
2018-07-03T20:43:37.681Z,7.35
2018-07-03T20:46:17.328Z,10.90
2018-07-03T20:48:56.480Z,8.85
2018-07-03T20:51:28.506Z,7.87
2018-07-03T20:54:02.738Z,8.27
2018-07-03T20:56:37.821Z,7.80
2018-07-03T20:59:10.255Z,9.13
2018-07-03T21:01:44.198Z,8.20
2018-07-03T21:04:18.179Z,8.10
2018-07-03T21:06:51.260Z,7.00
2018-07-03T21:09:29.776Z,6.53
2018-07-03T21:12:04.845Z,7.97
2018-07-03T21:14:41.304Z,12.75
2018-07-03T21:17:15.625Z,10.40
2018-07-03T21:19:50.627Z,8.50
2018-07-03T21:22:22.662Z,6.85
2018-07-03T21:24:56.736Z,7.08
2018-07-03T21:27:30.984Z,9.00
2018-07-03T21:30:04.079Z,8.48
2018-07-03T21:32:38.798Z,8.23
2018-07-03T21:35:10.838Z,9.53
2018-07-03T21:37:43.076Z,10.03
2018-07-03T21:40:15.356Z,9.60
2018-07-03T21:42:47.375Z,9.07
2018-07-03T21:45:19.485Z,8.28
2018-07-03T21:47:51.864Z,8.80
2018-07-03T21:50:23.994Z,10.00
2018-07-03T21:52:55.967Z,8.53
2018-07-03T21:55:28.158Z,9.13
2018-07-03T21:58:04.763Z,9.10
2018-07-03T22:00:38.491Z,8.47
2018-07-03T22:03:12.657Z,10.30
2018-07-03T22:05:57.113Z,9.23
2018-07-03T22:08:29.125Z,10.67
2018-07-03T22:11:01.221Z,9.00
2018-07-03T22:13:33.249Z,8.10
2018-07-03T22:16:06.025Z,10.80
2018-07-03T22:18:38.250Z,9.40
2018-07-03T22:21:11.288Z,8.93
2018-07-03T22:23:43.332Z,7.47
2018-07-03T22:26:16.499Z,8.83
2018-07-03T22:28:48.468Z,10.57
2018-07-03T22:31:20.708Z,9.33
2018-07-03T22:33:52.755Z,7.73
2018-07-03T22:36:24.847Z,8.27
2018-07-03T22:38:57.137Z,8.47
2018-07-03T22:41:29.786Z,9.03
2018-07-03T22:44:02.355Z,8.87
2018-07-03T22:46:37.614Z,9.00
2018-07-03T22:49:10.840Z,10.73
2018-07-03T22:51:43.200Z,9.47
2018-07-03T22:54:18.608Z,10.47
2018-07-03T22:57:00.170Z,11.17
2018-07-03T23:00:08.238Z,9.57
2018-07-03T23:02:48.024Z,7.80
2018-07-03T23:05:20.067Z,8.37
2018-07-03T23:07:52.339Z,10.03
2018-07-03T23:10:25.221Z,9.97
2018-07-03T23:12:58.297Z,8.20
2018-07-03T23:15:30.749Z,10.53
2018-07-03T23:18:02.804Z,9.80
2018-07-03T23:20:35.684Z,11.50
2018-07-03T23:23:08.037Z,10.83
2018-07-03T23:25:40.944Z,9.77
2018-07-03T23:28:16.828Z,9.77
2018-07-03T23:30:55.353Z,11.47
2018-07-03T23:33:28.387Z,11.03
2018-07-03T23:36:01.057Z,13.70
2018-07-03T23:38:39.455Z,9.17
2018-07-03T23:41:16.692Z,9.60
2018-07-03T23:44:03.103Z,10.90
2018-07-03T23:46:46.201Z,10.27
2018-07-03T23:52:21.684Z,10.10
2018-07-03T23:55:03.226Z,10.93
2018-07-03T23:57:48.281Z,8.83
